sensor_id;sensor_type;location;lat;lon;timestamp;temperature;humidity
4564;DHT22;2294;51.818;8.484;2022-12-13T00:00:19;-2.30;99.90
4564;DHT22;2294;51.818;8.484;2022-12-13T00:02:47;-2.30;99.90
4564;DHT22;2294;51.818;8.484;2022-12-13T00:05:14;-2.40;99.90
4564;DHT22;2294;51.818;8.484;2022-12-13T00:07:41;-2.50;99.90
4564;DHT22;2294;51.818;8.484;2022-12-13T00:10:08;-2.50;99.90
4564;DHT22;2294;51.818;8.484;2022-12-13T00:12:35;-2.50;99.90
4564;DHT22;2294;51.818;8.484;2022-12-13T00:15:02;-2.40;99.90
4564;DHT22;2294;51.818;8.484;2022-12-13T00:17:30;-2.50;99.90
4564;DHT22;2294;51.818;8.484;2022-12-13T00:19:58;-2.40;99.90
4564;DHT22;2294;51.818;8.484;2022-12-13T00:22:25;-2.40;99.90
4564;DHT22;2294;51.818;8.484;2022-12-13T00:24:53;-2.50;99.90
4564;DHT22;2294;51.818;8.484;2022-12-13T00:27:21;-2.60;99.90
4564;DHT22;2294;51.818;8.484;2022-12-13T00:29:48;-2.60;99.90
4564;DHT22;2294;51.818;8.484;2022-12-13T00:32:16;-2.50;99.90
4564;DHT22;2294;51.818;8.484;2022-12-13T00:34:42;-2.50;99.90
4564;DHT22;2294;51.818;8.484;2022-12-13T00:37:11;-2.50;99.90
4564;DHT22;2294;51.818;8.484;2022-12-13T00:39:38;-2.60;99.90
4564;DHT22;2294;51.818;8.484;2022-12-13T00:42:05;-2.60;99.90
4564;DHT22;2294;51.818;8.484;2022-12-13T00:44:32;-2.60;99.90
4564;DHT22;2294;51.818;8.484;2022-12-13T00:46:59;-2.50;99.90
4564;DHT22;2294;51.818;8.484;2022-12-13T00:49:25;-2.60;99.90
4564;DHT22;2294;51.818;8.484;2022-12-13T00:51:52;-2.70;99.90
4564;DHT22;2294;51.818;8.484;2022-12-13T00:54:21;-2.60;99.90
4564;DHT22;2294;51.818;8.484;2022-12-13T00:56:47;-2.70;99.90
4564;DHT22;2294;51.818;8.484;2022-12-13T00:59:16;-2.80;99.90
4564;DHT22;2294;51.818;8.484;2022-12-13T01:04:10;-2.90;99.90
4564;DHT22;2294;51.818;8.484;2022-12-13T01:06:39;-3.00;99.90
4564;DHT22;2294;51.818;8.484;2022-12-13T01:09:11;-2.90;99.90
4564;DHT22;2294;51.818;8.484;2022-12-13T01:11:41;-2.90;99.90
4564;DHT22;2294;51.818;8.484;2022-12-13T01:14:08;-3.00;99.90
4564;DHT22;2294;51.818;8.484;2022-12-13T01:16:35;-2.90;99.90
4564;DHT22;2294;51.818;8.484;2022-12-13T01:19:02;-3.00;99.90
4564;DHT22;2294;51.818;8.484;2022-12-13T01:21:29;-3.10;99.90
4564;DHT22;2294;51.818;8.484;2022-12-13T01:24:00;-3.10;99.90
4564;DHT22;2294;51.818;8.484;2022-12-13T01:26:28;-3.10;99.90
4564;DHT22;2294;51.818;8.484;2022-12-13T01:28:56;-3.00;99.90
4564;DHT22;2294;51.818;8.484;2022-12-13T01:31:24;-3.10;99.90
4564;DHT22;2294;51.818;8.484;2022-12-13T01:33:50;-3.10;99.90
4564;DHT22;2294;51.818;8.484;2022-12-13T01:36:19;-3.10;99.90
4564;DHT22;2294;51.818;8.484;2022-12-13T01:38:46;-3.10;99.90
4564;DHT22;2294;51.818;8.484;2022-12-13T01:41:14;-3.00;99.90
4564;DHT22;2294;51.818;8.484;2022-12-13T01:43:51;-3.10;99.90
4564;DHT22;2294;51.818;8.484;2022-12-13T01:46:20;-3.00;99.90
4564;DHT22;2294;51.818;8.484;2022-12-13T01:48:52;-3.20;99.90
4564;DHT22;2294;51.818;8.484;2022-12-13T01:51:25;-3.20;99.90
4564;DHT22;2294;51.818;8.484;2022-12-13T01:53:55;-3.20;99.90
4564;DHT22;2294;51.818;8.484;2022-12-13T01:56:27;-3.10;99.90
4564;DHT22;2294;51.818;8.484;2022-12-13T01:58:57;-3.10;99.90
4564;DHT22;2294;51.818;8.484;2022-12-13T02:01:26;-3.10;99.90
4564;DHT22;2294;51.818;8.484;2022-12-13T02:03:53;-3.00;99.90
4564;DHT22;2294;51.818;8.484;2022-12-13T02:06:26;-3.10;99.90
4564;DHT22;2294;51.818;8.484;2022-12-13T02:08:54;-3.10;99.90
4564;DHT22;2294;51.818;8.484;2022-12-13T02:11:21;-3.00;99.90
4564;DHT22;2294;51.818;8.484;2022-12-13T02:13:48;-3.10;99.90
4564;DHT22;2294;51.818;8.484;2022-12-13T02:16:27;-3.30;99.90
4564;DHT22;2294;51.818;8.484;2022-12-13T02:19:16;-3.40;99.90
4564;DHT22;2294;51.818;8.484;2022-12-13T02:21:56;-3.40;99.90
4564;DHT22;2294;51.818;8.484;2022-12-13T02:24:57;-3.40;99.90
4564;DHT22;2294;51.818;8.484;2022-12-13T02:27:42;-3.30;99.90
4564;DHT22;2294;51.818;8.484;2022-12-13T02:30:20;-3.40;99.90
4564;DHT22;2294;51.818;8.484;2022-12-13T02:32:56;-3.40;99.90
4564;DHT22;2294;51.818;8.484;2022-12-13T02:35:36;-3.20;99.90
4564;DHT22;2294;51.818;8.484;2022-12-13T02:38:10;-3.20;99.90
4564;DHT22;2294;51.818;8.484;2022-12-13T02:40:43;-3.20;99.90
4564;DHT22;2294;51.818;8.484;2022-12-13T02:43:17;-3.30;99.90
4564;DHT22;2294;51.818;8.484;2022-12-13T02:45:49;-3.40;99.90
4564;DHT22;2294;51.818;8.484;2022-12-13T02:48:20;-3.50;99.90
4564;DHT22;2294;51.818;8.484;2022-12-13T02:50:50;-3.60;99.90
4564;DHT22;2294;51.818;8.484;2022-12-13T02:53:19;-3.40;99.90
4564;DHT22;2294;51.818;8.484;2022-12-13T02:55:47;-3.40;99.90
4564;DHT22;2294;51.818;8.484;2022-12-13T02:58:17;-3.40;99.90
4564;DHT22;2294;51.818;8.484;2022-12-13T03:00:52;-3.50;99.90
4564;DHT22;2294;51.818;8.484;2022-12-13T03:03:29;-3.40;99.90
4564;DHT22;2294;51.818;8.484;2022-12-13T03:06:08;-3.50;99.90
4564;DHT22;2294;51.818;8.484;2022-12-13T03:08:58;-3.50;99.90
4564;DHT22;2294;51.818;8.484;2022-12-13T03:11:38;-3.60;99.90
4564;DHT22;2294;51.818;8.484;2022-12-13T03:14:25;-3.70;99.90
4564;DHT22;2294;51.818;8.484;2022-12-13T03:16:54;-3.70;99.90
4564;DHT22;2294;51.818;8.484;2022-12-13T03:19:21;-3.70;99.90
4564;DHT22;2294;51.818;8.484;2022-12-13T03:21:49;-3.70;99.90
4564;DHT22;2294;51.818;8.484;2022-12-13T03:24:18;-3.70;99.90
4564;DHT22;2294;51.818;8.484;2022-12-13T03:26:46;-3.80;99.90
4564;DHT22;2294;51.818;8.484;2022-12-13T03:29:14;-3.80;99.90
4564;DHT22;2294;51.818;8.484;2022-12-13T03:31:41;-3.80;99.90
4564;DHT22;2294;51.818;8.484;2022-12-13T03:34:09;-3.80;99.90
4564;DHT22;2294;51.818;8.484;2022-12-13T03:36:36;-3.90;99.90
4564;DHT22;2294;51.818;8.484;2022-12-13T03:39:03;-3.90;99.90
4564;DHT22;2294;51.818;8.484;2022-12-13T03:41:30;-3.90;99.90
4564;DHT22;2294;51.818;8.484;2022-12-13T03:43:58;-3.90;99.90
4564;DHT22;2294;51.818;8.484;2022-12-13T03:46:25;-4.00;99.90
4564;DHT22;2294;51.818;8.484;2022-12-13T03:48:52;-4.00;99.90
4564;DHT22;2294;51.818;8.484;2022-12-13T03:51:20;-4.00;99.90
4564;DHT22;2294;51.818;8.484;2022-12-13T03:53:47;-4.10;99.90
4564;DHT22;2294;51.818;8.484;2022-12-13T03:56:14;-4.10;99.90
4564;DHT22;2294;51.818;8.484;2022-12-13T03:58:41;-4.10;99.90
4564;DHT22;2294;51.818;8.484;2022-12-13T04:01:09;-4.10;99.90
4564;DHT22;2294;51.818;8.484;2022-12-13T04:03:38;-4.10;99.90
4564;DHT22;2294;51.818;8.484;2022-12-13T04:06:06;-4.20;99.90
4564;DHT22;2294;51.818;8.484;2022-12-13T04:08:35;-4.30;99.90
4564;DHT22;2294;51.818;8.484;2022-12-13T04:11:02;-4.30;99.90
4564;DHT22;2294;51.818;8.484;2022-12-13T04:13:50;-4.20;99.90
4564;DHT22;2294;51.818;8.484;2022-12-13T04:16:16;-4.20;99.90
4564;DHT22;2294;51.818;8.484;2022-12-13T04:18:43;-4.30;99.90
4564;DHT22;2294;51.818;8.484;2022-12-13T04:21:10;-4.30;99.90
4564;DHT22;2294;51.818;8.484;2022-12-13T04:23:38;-4.40;99.90
4564;DHT22;2294;51.818;8.484;2022-12-13T04:26:05;-4.40;99.90
4564;DHT22;2294;51.818;8.484;2022-12-13T04:28:32;-4.40;99.90
4564;DHT22;2294;51.818;8.484;2022-12-13T04:30:59;-4.30;99.90
4564;DHT22;2294;51.818;8.484;2022-12-13T04:33:26;-4.40;99.90
4564;DHT22;2294;51.818;8.484;2022-12-13T04:35:52;-4.30;99.90
4564;DHT22;2294;51.818;8.484;2022-12-13T04:38:19;-4.40;99.90
4564;DHT22;2294;51.818;8.484;2022-12-13T04:40:47;-4.30;99.90
4564;DHT22;2294;51.818;8.484;2022-12-13T04:43:14;-4.40;99.90
4564;DHT22;2294;51.818;8.484;2022-12-13T04:45:41;-4.50;99.90
4564;DHT22;2294;51.818;8.484;2022-12-13T04:48:08;-4.50;99.90
4564;DHT22;2294;51.818;8.484;2022-12-13T04:50:35;-4.50;99.90
4564;DHT22;2294;51.818;8.484;2022-12-13T04:53:02;-4.60;99.90
4564;DHT22;2294;51.818;8.484;2022-12-13T04:55:29;-4.70;99.90
4564;DHT22;2294;51.818;8.484;2022-12-13T04:57:57;-4.60;99.90
4564;DHT22;2294;51.818;8.484;2022-12-13T05:00:24;-4.70;99.90
4564;DHT22;2294;51.818;8.484;2022-12-13T05:02:50;-4.70;99.90
4564;DHT22;2294;51.818;8.484;2022-12-13T05:05:17;-4.70;99.90
4564;DHT22;2294;51.818;8.484;2022-12-13T05:07:45;-4.70;99.90
4564;DHT22;2294;51.818;8.484;2022-12-13T05:10:12;-4.70;99.90
4564;DHT22;2294;51.818;8.484;2022-12-13T05:12:38;-4.70;99.90
4564;DHT22;2294;51.818;8.484;2022-12-13T05:15:08;-4.70;99.90
4564;DHT22;2294;51.818;8.484;2022-12-13T05:17:34;-4.70;99.90
4564;DHT22;2294;51.818;8.484;2022-12-13T05:20:02;-4.70;99.90
4564;DHT22;2294;51.818;8.484;2022-12-13T05:22:29;-4.70;99.90
4564;DHT22;2294;51.818;8.484;2022-12-13T05:24:55;-4.80;99.90
4564;DHT22;2294;51.818;8.484;2022-12-13T05:27:22;-4.80;99.90
4564;DHT22;2294;51.818;8.484;2022-12-13T05:29:49;-4.80;99.90
4564;DHT22;2294;51.818;8.484;2022-12-13T05:32:17;-4.70;99.90
4564;DHT22;2294;51.818;8.484;2022-12-13T05:34:44;-4.90;99.90
4564;DHT22;2294;51.818;8.484;2022-12-13T05:37:11;-4.80;99.90
4564;DHT22;2294;51.818;8.484;2022-12-13T05:39:38;-4.80;99.90
4564;DHT22;2294;51.818;8.484;2022-12-13T05:42:05;-4.70;99.90
4564;DHT22;2294;51.818;8.484;2022-12-13T05:44:32;-4.80;99.90
4564;DHT22;2294;51.818;8.484;2022-12-13T05:46:59;-4.70;99.90
4564;DHT22;2294;51.818;8.484;2022-12-13T05:49:27;-4.70;99.90
4564;DHT22;2294;51.818;8.484;2022-12-13T05:51:54;-4.80;99.90
4564;DHT22;2294;51.818;8.484;2022-12-13T05:54:21;-4.90;99.90
4564;DHT22;2294;51.818;8.484;2022-12-13T05:56:48;-4.90;99.90
4564;DHT22;2294;51.818;8.484;2022-12-13T05:59:15;-4.90;99.90
4564;DHT22;2294;51.818;8.484;2022-12-13T06:01:42;-4.90;99.90
4564;DHT22;2294;51.818;8.484;2022-12-13T06:04:09;-4.90;99.90
4564;DHT22;2294;51.818;8.484;2022-12-13T06:06:37;-4.70;99.90
4564;DHT22;2294;51.818;8.484;2022-12-13T06:09:04;-5.50;99.90
4564;DHT22;2294;51.818;8.484;2022-12-13T06:11:31;-4.70;99.90
4564;DHT22;2294;51.818;8.484;2022-12-13T06:13:58;-5.30;99.90
4564;DHT22;2294;51.818;8.484;2022-12-13T06:16:25;-4.70;99.90
4564;DHT22;2294;51.818;8.484;2022-12-13T06:18:52;-4.70;99.90
4564;DHT22;2294;51.818;8.484;2022-12-13T06:21:21;-4.80;99.90
4564;DHT22;2294;51.818;8.484;2022-12-13T06:23:49;-4.70;99.90
4564;DHT22;2294;51.818;8.484;2022-12-13T06:26:16;-4.80;99.90
4564;DHT22;2294;51.818;8.484;2022-12-13T06:28:42;-4.80;99.90
4564;DHT22;2294;51.818;8.484;2022-12-13T06:31:09;-4.70;99.90
4564;DHT22;2294;51.818;8.484;2022-12-13T06:33:36;-4.90;99.90
4564;DHT22;2294;51.818;8.484;2022-12-13T06:36:04;-5.00;99.90
4564;DHT22;2294;51.818;8.484;2022-12-13T06:38:31;-4.80;99.90
4564;DHT22;2294;51.818;8.484;2022-12-13T06:41:11;-4.90;99.90
4564;DHT22;2294;51.818;8.484;2022-12-13T06:43:41;-4.80;99.90
4564;DHT22;2294;51.818;8.484;2022-12-13T06:46:08;-4.80;99.90
4564;DHT22;2294;51.818;8.484;2022-12-13T06:48:35;-4.80;99.90
4564;DHT22;2294;51.818;8.484;2022-12-13T06:51:06;-5.00;99.90
4564;DHT22;2294;51.818;8.484;2022-12-13T06:53:34;-5.10;99.90
4564;DHT22;2294;51.818;8.484;2022-12-13T06:56:03;-4.90;99.90
4564;DHT22;2294;51.818;8.484;2022-12-13T06:58:31;-5.00;99.90
4564;DHT22;2294;51.818;8.484;2022-12-13T07:01:03;-4.90;99.90
4564;DHT22;2294;51.818;8.484;2022-12-13T07:03:31;-5.10;99.90
4564;DHT22;2294;51.818;8.484;2022-12-13T07:05:58;-5.10;99.90
4564;DHT22;2294;51.818;8.484;2022-12-13T07:08:25;-4.70;99.90
4564;DHT22;2294;51.818;8.484;2022-12-13T07:10:52;-5.20;99.90
4564;DHT22;2294;51.818;8.484;2022-12-13T07:13:20;-5.30;99.90
4564;DHT22;2294;51.818;8.484;2022-12-13T07:15:49;-5.60;99.90
4564;DHT22;2294;51.818;8.484;2022-12-13T07:18:16;-5.30;99.90
4564;DHT22;2294;51.818;8.484;2022-12-13T07:20:43;-6.20;99.90
4564;DHT22;2294;51.818;8.484;2022-12-13T07:23:11;-5.00;99.90
4564;DHT22;2294;51.818;8.484;2022-12-13T07:25:38;-5.20;99.90
4564;DHT22;2294;51.818;8.484;2022-12-13T07:28:07;-5.20;99.90
4564;DHT22;2294;51.818;8.484;2022-12-13T07:30:36;-5.20;99.90
4564;DHT22;2294;51.818;8.484;2022-12-13T07:33:05;-5.30;99.90
4564;DHT22;2294;51.818;8.484;2022-12-13T07:35:32;-5.30;99.90
4564;DHT22;2294;51.818;8.484;2022-12-13T07:37:59;-5.20;99.90
4564;DHT22;2294;51.818;8.484;2022-12-13T07:40:26;-5.10;99.90
4564;DHT22;2294;51.818;8.484;2022-12-13T07:42:54;-5.10;99.90
4564;DHT22;2294;51.818;8.484;2022-12-13T07:45:22;-5.10;99.90
4564;DHT22;2294;51.818;8.484;2022-12-13T07:47:49;-5.10;99.90
4564;DHT22;2294;51.818;8.484;2022-12-13T07:50:17;-5.10;99.90
4564;DHT22;2294;51.818;8.484;2022-12-13T07:52:45;-5.10;99.90
4564;DHT22;2294;51.818;8.484;2022-12-13T07:55:12;-5.00;99.90
4564;DHT22;2294;51.818;8.484;2022-12-13T07:57:39;-5.20;99.90
4564;DHT22;2294;51.818;8.484;2022-12-13T08:00:07;-5.20;99.90
4564;DHT22;2294;51.818;8.484;2022-12-13T08:02:34;-5.10;99.90
4564;DHT22;2294;51.818;8.484;2022-12-13T08:05:01;-5.00;99.90
4564;DHT22;2294;51.818;8.484;2022-12-13T08:07:29;-4.90;99.90
4564;DHT22;2294;51.818;8.484;2022-12-13T08:09:56;-4.90;99.90
4564;DHT22;2294;51.818;8.484;2022-12-13T08:12:23;-4.90;99.90
4564;DHT22;2294;51.818;8.484;2022-12-13T08:14:51;-5.00;99.90
4564;DHT22;2294;51.818;8.484;2022-12-13T08:17:18;-4.80;99.90
4564;DHT22;2294;51.818;8.484;2022-12-13T08:19:44;-4.70;99.90
4564;DHT22;2294;51.818;8.484;2022-12-13T08:22:11;-4.70;99.90
4564;DHT22;2294;51.818;8.484;2022-12-13T08:24:40;-4.80;99.90
4564;DHT22;2294;51.818;8.484;2022-12-13T08:27:07;-4.70;99.90
4564;DHT22;2294;51.818;8.484;2022-12-13T08:29:34;-3.60;99.90
4564;DHT22;2294;51.818;8.484;2022-12-13T08:32:02;-4.60;99.90
4564;DHT22;2294;51.818;8.484;2022-12-13T08:34:29;-4.60;99.90
4564;DHT22;2294;51.818;8.484;2022-12-13T08:36:57;-4.40;99.90
4564;DHT22;2294;51.818;8.484;2022-12-13T08:39:24;-4.30;99.90
4564;DHT22;2294;51.818;8.484;2022-12-13T08:41:52;-4.10;99.90
4564;DHT22;2294;51.818;8.484;2022-12-13T08:44:19;-4.00;99.90
4564;DHT22;2294;51.818;8.484;2022-12-13T08:46:46;-3.90;99.90
4564;DHT22;2294;51.818;8.484;2022-12-13T08:49:13;-3.80;99.90
4564;DHT22;2294;51.818;8.484;2022-12-13T08:51:40;-3.60;99.90
4564;DHT22;2294;51.818;8.484;2022-12-13T08:54:07;-3.50;99.90
4564;DHT22;2294;51.818;8.484;2022-12-13T08:56:34;-3.50;99.90
4564;DHT22;2294;51.818;8.484;2022-12-13T08:59:03;-3.40;99.90
4564;DHT22;2294;51.818;8.484;2022-12-13T09:01:30;-3.40;99.90
4564;DHT22;2294;51.818;8.484;2022-12-13T09:03:57;-3.40;99.90
4564;DHT22;2294;51.818;8.484;2022-12-13T09:06:23;-3.30;99.90
4564;DHT22;2294;51.818;8.484;2022-12-13T09:08:52;-3.20;99.90
4564;DHT22;2294;51.818;8.484;2022-12-13T09:11:19;-3.10;99.90
4564;DHT22;2294;51.818;8.484;2022-12-13T09:13:46;-3.00;99.90
4564;DHT22;2294;51.818;8.484;2022-12-13T09:16:16;-2.90;99.90
4564;DHT22;2294;51.818;8.484;2022-12-13T09:18:44;-2.70;99.90
4564;DHT22;2294;51.818;8.484;2022-12-13T09:21:13;-2.80;99.90
4564;DHT22;2294;51.818;8.484;2022-12-13T09:23:40;-2.70;99.90
4564;DHT22;2294;51.818;8.484;2022-12-13T09:26:08;-2.70;99.90
4564;DHT22;2294;51.818;8.484;2022-12-13T09:28:37;-2.50;99.90
4564;DHT22;2294;51.818;8.484;2022-12-13T09:31:06;-2.40;99.90
4564;DHT22;2294;51.818;8.484;2022-12-13T09:33:35;-2.40;99.90
4564;DHT22;2294;51.818;8.484;2022-12-13T09:36:03;-2.30;99.90
4564;DHT22;2294;51.818;8.484;2022-12-13T09:38:30;-2.30;99.90
4564;DHT22;2294;51.818;8.484;2022-12-13T09:40:58;-2.20;99.90
4564;DHT22;2294;51.818;8.484;2022-12-13T09:43:28;-2.10;99.90
4564;DHT22;2294;51.818;8.484;2022-12-13T09:45:56;-2.10;99.90
4564;DHT22;2294;51.818;8.484;2022-12-13T09:48:24;-2.00;99.90
4564;DHT22;2294;51.818;8.484;2022-12-13T09:50:53;-2.00;99.90
4564;DHT22;2294;51.818;8.484;2022-12-13T09:53:20;-2.00;99.90
4564;DHT22;2294;51.818;8.484;2022-12-13T09:55:48;-1.90;99.90
4564;DHT22;2294;51.818;8.484;2022-12-13T09:58:19;-1.90;99.90
4564;DHT22;2294;51.818;8.484;2022-12-13T10:00:48;-1.80;99.90
4564;DHT22;2294;51.818;8.484;2022-12-13T10:03:18;-1.70;99.90
4564;DHT22;2294;51.818;8.484;2022-12-13T10:05:54;-1.70;99.90
4564;DHT22;2294;51.818;8.484;2022-12-13T10:08:24;-1.70;99.90
4564;DHT22;2294;51.818;8.484;2022-12-13T10:10:53;-1.60;99.90
4564;DHT22;2294;51.818;8.484;2022-12-13T10:13:22;-1.60;99.90
4564;DHT22;2294;51.818;8.484;2022-12-13T10:15:55;-1.50;99.90
4564;DHT22;2294;51.818;8.484;2022-12-13T10:18:30;-1.50;99.90
4564;DHT22;2294;51.818;8.484;2022-12-13T10:21:01;-1.40;99.90
4564;DHT22;2294;51.818;8.484;2022-12-13T10:23:29;-1.30;99.90
4564;DHT22;2294;51.818;8.484;2022-12-13T10:25:56;-1.30;99.90
4564;DHT22;2294;51.818;8.484;2022-12-13T10:28:26;-1.30;99.90
4564;DHT22;2294;51.818;8.484;2022-12-13T10:30:53;-1.30;99.90
4564;DHT22;2294;51.818;8.484;2022-12-13T10:33:24;-1.10;99.90
4564;DHT22;2294;51.818;8.484;2022-12-13T10:36:04;-1.10;99.90
4564;DHT22;2294;51.818;8.484;2022-12-13T10:38:35;-1.20;99.90
4564;DHT22;2294;51.818;8.484;2022-12-13T10:41:03;-0.90;99.90
4564;DHT22;2294;51.818;8.484;2022-12-13T10:44:06;-1.00;99.90
4564;DHT22;2294;51.818;8.484;2022-12-13T10:46:34;-0.80;99.90
4564;DHT22;2294;51.818;8.484;2022-12-13T10:49:01;-0.80;99.90
4564;DHT22;2294;51.818;8.484;2022-12-13T10:51:37;-0.60;99.90
4564;DHT22;2294;51.818;8.484;2022-12-13T10:54:10;-0.50;99.90
4564;DHT22;2294;51.818;8.484;2022-12-13T10:56:43;-0.40;99.90
4564;DHT22;2294;51.818;8.484;2022-12-13T10:59:23;-0.30;99.90
4564;DHT22;2294;51.818;8.484;2022-12-13T11:01:51;-0.40;99.90
4564;DHT22;2294;51.818;8.484;2022-12-13T11:04:23;-0.20;99.90
4564;DHT22;2294;51.818;8.484;2022-12-13T11:06:55;-0.20;99.90
4564;DHT22;2294;51.818;8.484;2022-12-13T11:09:26;-0.30;99.90
4564;DHT22;2294;51.818;8.484;2022-12-13T11:11:55;0.50;99.90
4564;DHT22;2294;51.818;8.484;2022-12-13T11:14:25;-0.10;99.90
4564;DHT22;2294;51.818;8.484;2022-12-13T11:16:55;-0.10;99.90
4564;DHT22;2294;51.818;8.484;2022-12-13T11:19:27;0.00;99.90
4564;DHT22;2294;51.818;8.484;2022-12-13T11:21:59;0.00;99.90
4564;DHT22;2294;51.818;8.484;2022-12-13T11:24:30;0.10;99.90
4564;DHT22;2294;51.818;8.484;2022-12-13T11:27:03;0.00;99.90
4564;DHT22;2294;51.818;8.484;2022-12-13T11:29:50;0.10;99.90
4564;DHT22;2294;51.818;8.484;2022-12-13T11:32:28;0.20;99.90
4564;DHT22;2294;51.818;8.484;2022-12-13T11:35:03;0.20;99.90
4564;DHT22;2294;51.818;8.484;2022-12-13T11:37:46;0.30;99.90
4564;DHT22;2294;51.818;8.484;2022-12-13T11:40:19;0.30;99.90
4564;DHT22;2294;51.818;8.484;2022-12-13T11:42:52;0.30;99.90
4564;DHT22;2294;51.818;8.484;2022-12-13T11:45:24;0.40;99.90
4564;DHT22;2294;51.818;8.484;2022-12-13T11:48:00;0.50;99.90
4564;DHT22;2294;51.818;8.484;2022-12-13T11:50:32;0.50;99.90
4564;DHT22;2294;51.818;8.484;2022-12-13T11:53:19;0.50;99.90
4564;DHT22;2294;51.818;8.484;2022-12-13T11:55:51;0.60;99.90
4564;DHT22;2294;51.818;8.484;2022-12-13T11:58:26;0.60;99.90
4564;DHT22;2294;51.818;8.484;2022-12-13T12:00:58;0.70;99.90
4564;DHT22;2294;51.818;8.484;2022-12-13T12:03:35;0.80;99.90
4564;DHT22;2294;51.818;8.484;2022-12-13T12:06:08;0.80;99.90
4564;DHT22;2294;51.818;8.484;2022-12-13T12:08:42;0.80;99.90
4564;DHT22;2294;51.818;8.484;2022-12-13T12:11:16;0.90;99.90
4564;DHT22;2294;51.818;8.484;2022-12-13T12:13:49;0.90;99.90
4564;DHT22;2294;51.818;8.484;2022-12-13T12:16:31;0.90;99.90
4564;DHT22;2294;51.818;8.484;2022-12-13T12:19:01;0.90;99.90
4564;DHT22;2294;51.818;8.484;2022-12-13T12:21:35;1.00;99.90
4564;DHT22;2294;51.818;8.484;2022-12-13T12:24:11;1.10;99.90
4564;DHT22;2294;51.818;8.484;2022-12-13T12:26:51;1.20;99.90
4564;DHT22;2294;51.818;8.484;2022-12-13T12:32:16;1.40;99.90
4564;DHT22;2294;51.818;8.484;2022-12-13T12:34:51;1.30;99.90
4564;DHT22;2294;51.818;8.484;2022-12-13T12:37:27;1.50;99.90
4564;DHT22;2294;51.818;8.484;2022-12-13T12:40:32;1.50;99.90
4564;DHT22;2294;51.818;8.484;2022-12-13T12:43:07;1.30;99.90
4564;DHT22;2294;51.818;8.484;2022-12-13T12:45:47;1.50;99.90
4564;DHT22;2294;51.818;8.484;2022-12-13T12:48:30;1.50;99.90
4564;DHT22;2294;51.818;8.484;2022-12-13T12:51:03;1.50;99.90
4564;DHT22;2294;51.818;8.484;2022-12-13T12:53:37;1.60;99.90
4564;DHT22;2294;51.818;8.484;2022-12-13T12:56:18;1.50;99.90
4564;DHT22;2294;51.818;8.484;2022-12-13T12:58:52;1.50;99.90
4564;DHT22;2294;51.818;8.484;2022-12-13T13:01:31;1.40;99.90
4564;DHT22;2294;51.818;8.484;2022-12-13T13:04:04;1.30;99.90
4564;DHT22;2294;51.818;8.484;2022-12-13T13:06:34;1.20;99.90
4564;DHT22;2294;51.818;8.484;2022-12-13T13:09:05;1.30;99.90
4564;DHT22;2294;51.818;8.484;2022-12-13T13:11:37;1.20;99.90
4564;DHT22;2294;51.818;8.484;2022-12-13T13:14:28;1.00;99.90
4564;DHT22;2294;51.818;8.484;2022-12-13T13:16:55;1.00;99.90
4564;DHT22;2294;51.818;8.484;2022-12-13T13:19:43;0.80;99.90
4564;DHT22;2294;51.818;8.484;2022-12-13T13:22:29;1.00;99.90
4564;DHT22;2294;51.818;8.484;2022-12-13T13:25:21;0.90;99.90
4564;DHT22;2294;51.818;8.484;2022-12-13T13:28:00;0.80;99.90
4564;DHT22;2294;51.818;8.484;2022-12-13T13:30:27;0.80;99.90
4564;DHT22;2294;51.818;8.484;2022-12-13T13:32:56;0.80;99.90
4564;DHT22;2294;51.818;8.484;2022-12-13T13:41:55;0.40;99.90
4564;DHT22;2294;51.818;8.484;2022-12-13T13:44:54;0.30;99.90
4564;DHT22;2294;51.818;8.484;2022-12-13T13:47:41;0.30;99.90
4564;DHT22;2294;51.818;8.484;2022-12-13T13:53:46;0.20;99.90
4564;DHT22;2294;51.818;8.484;2022-12-13T14:06:07;-0.40;99.90
4564;DHT22;2294;51.818;8.484;2022-12-13T14:09:01;-0.40;99.90
4564;DHT22;2294;51.818;8.484;2022-12-13T14:15:05;-0.60;99.90
4564;DHT22;2294;51.818;8.484;2022-12-13T14:18:08;-0.70;99.90
4564;DHT22;2294;51.818;8.484;2022-12-13T14:20:48;-0.80;99.90
4564;DHT22;2294;51.818;8.484;2022-12-13T14:23:31;-0.90;99.90
4564;DHT22;2294;51.818;8.484;2022-12-13T14:26:16;-1.00;99.90
4564;DHT22;2294;51.818;8.484;2022-12-13T14:28:47;-1.00;99.90
4564;DHT22;2294;51.818;8.484;2022-12-13T14:31:19;-1.10;99.90
4564;DHT22;2294;51.818;8.484;2022-12-13T14:33:47;-1.00;99.90
4564;DHT22;2294;51.818;8.484;2022-12-13T14:36:25;-1.10;99.90
4564;DHT22;2294;51.818;8.484;2022-12-13T14:38:58;-1.10;99.90
4564;DHT22;2294;51.818;8.484;2022-12-13T14:41:25;-1.20;99.90
4564;DHT22;2294;51.818;8.484;2022-12-13T14:43:52;-1.10;99.90
4564;DHT22;2294;51.818;8.484;2022-12-13T14:46:19;-1.30;99.90
4564;DHT22;2294;51.818;8.484;2022-12-13T14:48:48;-1.30;99.90
4564;DHT22;2294;51.818;8.484;2022-12-13T14:51:30;-1.30;99.90
4564;DHT22;2294;51.818;8.484;2022-12-13T14:53:59;-1.40;99.90
4564;DHT22;2294;51.818;8.484;2022-12-13T14:56:26;-1.40;99.90
4564;DHT22;2294;51.818;8.484;2022-12-13T14:58:55;-1.40;99.90
4564;DHT22;2294;51.818;8.484;2022-12-13T15:01:25;-1.40;99.90
4564;DHT22;2294;51.818;8.484;2022-12-13T15:03:54;-1.50;99.90
4564;DHT22;2294;51.818;8.484;2022-12-13T15:06:42;-1.40;99.90
4564;DHT22;2294;51.818;8.484;2022-12-13T15:09:10;-1.50;99.90
4564;DHT22;2294;51.818;8.484;2022-12-13T15:11:37;-1.60;99.90
4564;DHT22;2294;51.818;8.484;2022-12-13T15:14:05;-1.70;99.90
4564;DHT22;2294;51.818;8.484;2022-12-13T15:16:32;-1.80;99.90
4564;DHT22;2294;51.818;8.484;2022-12-13T15:19:05;-2.00;99.90
4564;DHT22;2294;51.818;8.484;2022-12-13T15:21:33;-1.90;99.90
4564;DHT22;2294;51.818;8.484;2022-12-13T15:24:01;-1.90;99.90
4564;DHT22;2294;51.818;8.484;2022-12-13T15:26:30;-1.90;99.90
4564;DHT22;2294;51.818;8.484;2022-12-13T15:29:00;-2.00;99.90
4564;DHT22;2294;51.818;8.484;2022-12-13T15:31:27;-2.10;99.90
4564;DHT22;2294;51.818;8.484;2022-12-13T15:33:54;-2.10;99.90
4564;DHT22;2294;51.818;8.484;2022-12-13T15:36:41;-2.20;99.90
4564;DHT22;2294;51.818;8.484;2022-12-13T15:39:10;-2.10;99.90
4564;DHT22;2294;51.818;8.484;2022-12-13T15:41:43;-2.30;99.90
4564;DHT22;2294;51.818;8.484;2022-12-13T15:44:16;-2.20;99.90
4564;DHT22;2294;51.818;8.484;2022-12-13T15:46:45;-2.20;99.90
4564;DHT22;2294;51.818;8.484;2022-12-13T15:49:23;-2.20;99.90
4564;DHT22;2294;51.818;8.484;2022-12-13T15:51:55;-2.20;99.90
4564;DHT22;2294;51.818;8.484;2022-12-13T15:54:23;-2.30;99.90
4564;DHT22;2294;51.818;8.484;2022-12-13T15:57:00;-2.40;99.90
4564;DHT22;2294;51.818;8.484;2022-12-13T15:59:30;-2.50;99.90
4564;DHT22;2294;51.818;8.484;2022-12-13T16:01:57;-2.50;99.90
4564;DHT22;2294;51.818;8.484;2022-12-13T16:04:26;-2.50;99.90
4564;DHT22;2294;51.818;8.484;2022-12-13T16:06:55;-2.40;99.90
4564;DHT22;2294;51.818;8.484;2022-12-13T16:09:25;-2.30;99.90
4564;DHT22;2294;51.818;8.484;2022-12-13T16:11:56;-2.40;99.90
4564;DHT22;2294;51.818;8.484;2022-12-13T16:14:30;-2.30;99.90
4564;DHT22;2294;51.818;8.484;2022-12-13T16:17:01;-2.60;99.90
4564;DHT22;2294;51.818;8.484;2022-12-13T16:19:28;-2.60;99.90
4564;DHT22;2294;51.818;8.484;2022-12-13T16:21:55;-2.60;99.90
4564;DHT22;2294;51.818;8.484;2022-12-13T16:24:23;-2.60;99.90
4564;DHT22;2294;51.818;8.484;2022-12-13T16:26:50;-2.50;99.90
4564;DHT22;2294;51.818;8.484;2022-12-13T16:29:17;-2.50;99.90
4564;DHT22;2294;51.818;8.484;2022-12-13T16:31:45;-2.70;99.90
4564;DHT22;2294;51.818;8.484;2022-12-13T16:34:12;-2.50;99.90
4564;DHT22;2294;51.818;8.484;2022-12-13T16:36:43;-2.60;99.90
4564;DHT22;2294;51.818;8.484;2022-12-13T16:39:10;-2.50;99.90
4564;DHT22;2294;51.818;8.484;2022-12-13T16:41:41;-2.50;99.90
4564;DHT22;2294;51.818;8.484;2022-12-13T16:44:18;-2.50;99.90
4564;DHT22;2294;51.818;8.484;2022-12-13T16:46:46;-2.50;99.90
4564;DHT22;2294;51.818;8.484;2022-12-13T16:49:17;-2.50;99.90
4564;DHT22;2294;51.818;8.484;2022-12-13T16:51:45;-2.50;99.90
4564;DHT22;2294;51.818;8.484;2022-12-13T16:54:12;-2.60;99.90